createdAt,value
2018-09-13T00:00:28.101Z,17.55
2018-09-13T00:01:28.091Z,17.70
2018-09-13T00:02:28.323Z,17.71
2018-09-13T00:03:28.068Z,17.71
2018-09-13T00:04:28.063Z,17.57
2018-09-13T00:05:28.046Z,17.54
2018-09-13T00:06:28.035Z,17.49
2018-09-13T00:07:28.152Z,17.63
2018-09-13T00:08:28.014Z,17.74
2018-09-13T00:09:28.004Z,17.79
2018-09-13T00:10:28.001Z,17.60
2018-09-13T00:11:27.984Z,17.68
2018-09-13T00:12:28.301Z,17.74
2018-09-13T00:13:27.963Z,17.76
2018-09-13T00:14:27.952Z,17.83
2018-09-13T00:15:27.940Z,17.83
2018-09-13T00:16:27.933Z,17.95
2018-09-13T00:17:28.122Z,17.96
2018-09-13T00:18:27.907Z,17.95
2018-09-13T00:19:27.896Z,18.02
2018-09-13T00:20:27.886Z,17.92
2018-09-13T00:21:27.875Z,18.02
2018-09-13T00:22:27.952Z,18.04
2018-09-13T00:23:27.852Z,18.07
2018-09-13T00:24:27.842Z,18.09
2018-09-13T00:25:27.833Z,18.02
2018-09-13T00:26:27.824Z,18.11
2018-09-13T00:27:28.096Z,18.17
2018-09-13T00:28:27.800Z,18.23
2018-09-13T00:29:27.788Z,18.32
2018-09-13T00:30:27.778Z,18.25
2018-09-13T00:31:27.769Z,18.32
2018-09-13T00:32:27.923Z,18.26
2018-09-13T00:33:27.750Z,18.19
2018-09-13T00:34:27.738Z,18.35
2018-09-13T00:35:27.729Z,18.29
2018-09-13T00:36:27.713Z,18.23
2018-09-13T00:37:27.753Z,18.19
2018-09-13T00:38:27.695Z,18.13
2018-09-13T00:39:27.683Z,17.87
2018-09-13T00:40:27.670Z,17.86
2018-09-13T00:41:27.659Z,17.92
2018-09-13T00:42:27.902Z,17.96
2018-09-13T00:43:27.639Z,17.74
2018-09-13T00:44:27.640Z,17.63
2018-09-13T00:45:27.619Z,17.70
2018-09-13T00:46:27.604Z,17.96
2018-09-13T00:47:27.730Z,17.95
2018-09-13T00:48:27.584Z,17.77
2018-09-13T00:49:27.573Z,17.84
2018-09-13T00:50:27.564Z,17.96
2018-09-13T00:51:27.558Z,18.02
2018-09-13T00:52:27.865Z,18.09
2018-09-13T00:53:27.533Z,18.04
2018-09-13T00:54:27.523Z,17.99
2018-09-13T00:55:27.509Z,17.99
2018-09-13T00:56:27.498Z,17.92
2018-09-13T00:57:27.692Z,17.94
2018-09-13T00:58:27.478Z,17.99
2018-09-13T00:59:27.467Z,18.09
2018-09-13T01:00:27.455Z,18.01
2018-09-13T01:01:27.445Z,18.01
2018-09-13T01:02:27.836Z,17.89
2018-09-13T01:03:27.427Z,17.83
2018-09-13T01:04:27.412Z,17.80
2018-09-13T01:05:27.402Z,17.77
2018-09-13T01:06:27.391Z,17.74
2018-09-13T01:07:27.665Z,17.65
2018-09-13T01:08:27.376Z,17.70
2018-09-13T01:09:27.364Z,17.80
2018-09-13T01:10:27.349Z,17.91
2018-09-13T01:11:27.337Z,17.89
2018-09-13T01:12:27.492Z,17.91
2018-09-13T01:13:27.315Z,17.86
2018-09-13T01:14:27.303Z,17.96
2018-09-13T01:15:27.297Z,17.92
2018-09-13T01:16:27.313Z,17.86
2018-09-13T01:17:27.325Z,17.71
2018-09-13T01:18:27.263Z,17.66
2018-09-13T01:19:27.249Z,17.71
2018-09-13T01:20:27.242Z,17.74
2018-09-13T01:21:27.233Z,17.68
2018-09-13T01:22:27.463Z,17.77
2018-09-13T01:23:27.208Z,17.68
2018-09-13T01:24:27.197Z,17.76
2018-09-13T01:25:27.187Z,17.60
2018-09-13T01:26:27.176Z,17.60
2018-09-13T01:27:27.297Z,17.65
2018-09-13T01:28:27.153Z,17.65
2018-09-13T01:29:27.144Z,17.66
2018-09-13T01:30:27.132Z,17.68
2018-09-13T01:31:27.122Z,17.63
2018-09-13T01:32:27.443Z,17.62
2018-09-13T01:33:27.099Z,17.42
2018-09-13T01:34:27.090Z,17.24
2018-09-13T01:35:27.080Z,17.21
2018-09-13T01:36:27.069Z,17.32
2018-09-13T01:37:27.265Z,17.36
2018-09-13T01:38:27.054Z,17.33
2018-09-13T01:39:27.046Z,17.18
2018-09-13T01:40:27.025Z,17.18
2018-09-13T01:41:27.013Z,17.28
2018-09-13T01:42:27.095Z,17.21
2018-09-13T01:43:26.997Z,17.17
2018-09-13T01:44:26.985Z,17.20
2018-09-13T01:45:26.974Z,17.09
2018-09-13T01:46:26.962Z,17.07
2018-09-13T01:47:27.235Z,17.10
2018-09-13T01:48:26.938Z,17.05
2018-09-13T01:49:26.932Z,17.20
2018-09-13T01:50:26.924Z,17.03
2018-09-13T01:51:26.908Z,17.05
2018-09-13T01:52:27.680Z,17.10
2018-09-13T01:53:26.885Z,17.10
2018-09-13T01:54:26.876Z,17.02
2018-09-13T01:55:26.870Z,16.73
2018-09-13T01:56:26.861Z,16.60
2018-09-13T01:57:26.899Z,16.63
2018-09-13T01:58:26.833Z,16.72
2018-09-13T01:59:26.828Z,16.75
2018-09-13T02:00:26.809Z,16.72
2018-09-13T02:01:26.806Z,16.67
2018-09-13T02:02:27.033Z,16.70
2018-09-13T02:03:26.778Z,16.82
2018-09-13T02:04:26.766Z,16.73
2018-09-13T02:05:26.758Z,16.78
2018-09-13T02:06:26.745Z,16.78
2018-09-13T02:07:26.866Z,16.72
2018-09-13T02:08:26.725Z,16.69
2018-09-13T02:09:26.713Z,16.75
2018-09-13T02:10:26.702Z,16.66
2018-09-13T02:11:26.693Z,16.66
2018-09-13T02:12:27.005Z,16.72
2018-09-13T02:13:26.671Z,16.69
2018-09-13T02:14:26.671Z,16.69
2018-09-13T02:15:26.649Z,16.67
2018-09-13T02:16:26.639Z,16.52
2018-09-13T02:17:26.835Z,16.63
2018-09-13T02:18:26.619Z,16.62
2018-09-13T02:19:26.607Z,16.52
2018-09-13T02:20:26.600Z,16.65
2018-09-13T02:21:26.586Z,16.63
2018-09-13T02:22:26.665Z,16.54
2018-09-13T02:23:26.563Z,16.62
2018-09-13T02:24:26.551Z,16.52
2018-09-13T02:25:26.541Z,16.55
2018-09-13T02:26:26.538Z,16.48
2018-09-13T02:27:26.804Z,16.44
2018-09-13T02:28:26.508Z,16.36
2018-09-13T02:29:26.499Z,16.37
2018-09-13T02:30:26.490Z,16.29
2018-09-13T02:31:26.477Z,16.27
2018-09-13T02:32:26.639Z,16.22
2018-09-13T02:33:26.456Z,16.22
2018-09-13T02:34:26.448Z,16.01
2018-09-13T02:35:26.436Z,16.06
2018-09-13T02:36:26.423Z,16.13
2018-09-13T02:37:26.466Z,16.04
2018-09-13T02:38:26.407Z,16.01
2018-09-13T02:39:26.391Z,15.88
2018-09-13T02:40:26.381Z,15.91
2018-09-13T02:41:26.370Z,15.93
2018-09-13T02:42:26.607Z,15.93
2018-09-13T02:43:26.347Z,15.91
2018-09-13T02:44:26.342Z,15.89
2018-09-13T02:45:26.327Z,15.99
2018-09-13T02:46:26.322Z,16.03
2018-09-13T02:47:26.441Z,15.99
2018-09-13T02:48:26.295Z,15.96
2018-09-13T02:49:26.293Z,15.93
2018-09-13T02:50:26.273Z,15.93
2018-09-13T02:51:26.261Z,15.88
2018-09-13T02:52:26.574Z,15.86
2018-09-13T02:53:26.242Z,15.81
2018-09-13T02:54:26.231Z,15.73
2018-09-13T02:55:26.224Z,15.84
2018-09-13T02:56:26.210Z,15.80
2018-09-13T02:57:26.405Z,15.80
2018-09-13T02:58:26.187Z,15.77
2018-09-13T02:59:26.178Z,15.77
2018-09-13T03:00:26.171Z,15.80
2018-09-13T03:01:26.158Z,15.81
2018-09-13T03:02:26.235Z,15.81
2018-09-13T03:03:26.132Z,15.70
2018-09-13T03:04:26.121Z,15.67
2018-09-13T03:05:26.111Z,15.49
2018-09-13T03:06:26.104Z,15.62
2018-09-13T03:07:26.373Z,15.52
2018-09-13T03:08:26.111Z,15.51
2018-09-13T03:09:26.070Z,15.52
2018-09-13T03:10:26.065Z,15.56
2018-09-13T03:11:26.045Z,15.52
2018-09-13T03:12:26.204Z,15.51
2018-09-13T03:13:26.028Z,15.53
2018-09-13T03:14:26.019Z,15.38
2018-09-13T03:15:26.006Z,15.34
2018-09-13T03:16:25.992Z,15.35
2018-09-13T03:17:26.036Z,15.40
2018-09-13T03:18:25.974Z,15.49
2018-09-13T03:19:25.965Z,15.64
2018-09-13T03:20:25.956Z,15.52
2018-09-13T03:21:25.940Z,15.51
2018-09-13T03:22:25.931Z,15.38
2018-09-13T03:23:26.080Z,15.44
2018-09-13T03:24:25.909Z,15.40
2018-09-13T03:25:25.902Z,15.38
2018-09-13T03:26:25.886Z,15.35
2018-09-13T03:27:25.876Z,15.40
2018-09-13T03:28:25.915Z,15.33
2018-09-13T03:29:25.853Z,15.37
2018-09-13T03:30:25.843Z,15.23
2018-09-13T03:31:25.838Z,15.28
2018-09-13T03:32:25.820Z,15.22
2018-09-13T03:33:26.053Z,15.33
2018-09-13T03:34:25.800Z,15.34
2018-09-13T03:35:25.788Z,15.31
2018-09-13T03:36:25.776Z,15.37
2018-09-13T03:37:25.772Z,15.23
2018-09-13T03:38:25.883Z,15.27
2018-09-13T03:39:25.748Z,15.34
2018-09-13T03:40:25.734Z,15.25
2018-09-13T03:41:25.724Z,15.25
2018-09-13T03:42:25.715Z,15.20
2018-09-13T03:43:26.021Z,15.15
2018-09-13T03:44:25.691Z,15.07
2018-09-13T03:45:25.682Z,15.09
2018-09-13T03:46:25.671Z,15.01
2018-09-13T03:47:25.661Z,15.05
2018-09-13T03:48:25.857Z,15.01
2018-09-13T03:49:25.644Z,15.07
2018-09-13T03:50:25.627Z,15.12
2018-09-13T03:51:25.617Z,15.16
2018-09-13T03:52:25.606Z,15.19
2018-09-13T03:53:25.682Z,15.27
2018-09-13T03:54:25.584Z,15.22
2018-09-13T03:55:25.573Z,15.19
2018-09-13T03:56:25.565Z,15.01
2018-09-13T03:57:25.553Z,15.09
2018-09-13T03:58:26.745Z,15.03
2018-09-13T03:59:25.530Z,15.11
2018-09-13T04:00:25.521Z,15.01
2018-09-13T04:01:25.509Z,15.05
2018-09-13T04:02:25.516Z,15.04
2018-09-13T04:03:25.695Z,14.82
2018-09-13T04:04:25.476Z,14.91
2018-09-13T04:05:25.469Z,14.83
2018-09-13T04:06:25.458Z,14.82
2018-09-13T04:07:25.446Z,14.80
2018-09-13T04:08:25.495Z,14.87
2018-09-13T04:09:25.476Z,14.85
2018-09-13T04:10:25.410Z,14.85
2018-09-13T04:11:25.412Z,14.82
2018-09-13T04:12:25.388Z,14.82
2018-09-13T04:13:25.621Z,14.83
2018-09-13T04:14:25.368Z,14.93
2018-09-13T04:15:25.356Z,14.97
2018-09-13T04:16:25.346Z,14.86
2018-09-13T04:17:25.336Z,14.83
2018-09-13T04:18:25.455Z,14.83
2018-09-13T04:19:25.320Z,14.85
2018-09-13T04:20:25.305Z,14.86
2018-09-13T04:21:25.291Z,14.83
2018-09-13T04:22:25.285Z,14.83
2018-09-13T04:23:25.592Z,14.90
2018-09-13T04:24:25.263Z,14.85
2018-09-13T04:25:25.251Z,14.79
2018-09-13T04:26:25.250Z,14.91
2018-09-13T04:27:25.227Z,14.80
2018-09-13T04:28:25.431Z,14.85
2018-09-13T04:29:25.208Z,14.90
2018-09-13T04:30:25.201Z,14.91
2018-09-13T04:31:25.186Z,14.82
2018-09-13T04:32:25.173Z,14.87
2018-09-13T04:33:25.268Z,14.95
2018-09-13T04:34:25.155Z,15.01
2018-09-13T04:35:25.682Z,15.00
2018-09-13T04:36:25.137Z,15.05
2018-09-13T04:37:25.127Z,15.05
2018-09-13T04:38:25.392Z,15.05
2018-09-13T04:39:25.097Z,15.12
2018-09-13T04:40:25.089Z,15.15
2018-09-13T04:41:25.078Z,15.19
2018-09-13T04:42:25.070Z,15.12
2018-09-13T04:43:25.222Z,15.11
2018-09-13T04:44:25.048Z,15.15
2018-09-13T04:45:25.035Z,15.15
2018-09-13T04:46:25.026Z,15.19
2018-09-13T04:47:25.013Z,15.12
2018-09-13T04:48:25.006Z,15.22
2018-09-13T04:49:25.269Z,15.22
2018-09-13T04:50:24.982Z,15.27
2018-09-13T04:51:24.970Z,15.23
2018-09-13T04:52:24.959Z,15.25
2018-09-13T04:53:24.949Z,15.18
2018-09-13T04:54:25.095Z,15.16
2018-09-13T04:55:24.926Z,15.28
2018-09-13T04:56:24.916Z,15.35
2018-09-13T04:57:24.907Z,15.09
2018-09-13T04:58:24.895Z,15.20
2018-09-13T04:59:25.235Z,15.23
2018-09-13T05:00:24.885Z,15.28
2018-09-13T05:01:24.862Z,15.33
2018-09-13T05:02:24.850Z,15.33
2018-09-13T05:03:24.840Z,15.40
2018-09-13T05:04:25.066Z,15.56
2018-09-13T05:05:24.821Z,15.58
2018-09-13T05:06:24.813Z,15.64
2018-09-13T05:07:24.796Z,15.62
2018-09-13T05:08:24.789Z,15.78
2018-09-13T05:09:24.900Z,15.78
2018-09-13T05:10:24.766Z,15.86
2018-09-13T05:11:24.757Z,15.91
2018-09-13T05:12:24.743Z,16.01
2018-09-13T05:13:24.731Z,15.86
2018-09-13T05:14:25.049Z,15.80
2018-09-13T05:15:24.711Z,15.91
2018-09-13T05:16:24.706Z,15.96
2018-09-13T05:17:24.694Z,16.01
2018-09-13T05:18:24.685Z,16.01
2018-09-13T05:19:24.867Z,15.96
2018-09-13T05:20:24.656Z,15.98
2018-09-13T05:21:24.645Z,15.98
2018-09-13T05:22:24.635Z,16.03
2018-09-13T05:23:24.627Z,16.06
2018-09-13T05:24:24.770Z,16.06
2018-09-13T05:25:24.603Z,16.10
2018-09-13T05:26:24.591Z,16.16
2018-09-13T05:27:24.582Z,16.27
2018-09-13T05:28:24.572Z,16.29
2018-09-13T05:29:24.841Z,16.30
2018-09-13T05:30:24.549Z,16.14
2018-09-13T05:31:24.541Z,16.23
2018-09-13T05:32:24.528Z,16.27
2018-09-13T05:33:24.517Z,16.34
2018-09-13T05:34:24.667Z,16.37
2018-09-13T05:35:24.496Z,16.42
2018-09-13T05:36:24.484Z,16.50
2018-09-13T05:37:24.475Z,16.48
2018-09-13T05:38:24.463Z,16.66
2018-09-13T05:39:24.505Z,16.54
2018-09-13T05:40:24.443Z,16.54
2018-09-13T05:41:24.443Z,16.54
2018-09-13T05:42:24.420Z,16.57
2018-09-13T05:43:24.411Z,16.60
2018-09-13T05:44:24.656Z,16.52
2018-09-13T05:45:24.388Z,16.57
2018-09-13T05:46:24.379Z,16.78
2018-09-13T05:47:24.371Z,16.52
2018-09-13T05:48:24.356Z,16.60
2018-09-13T05:49:24.467Z,16.62
2018-09-13T05:50:24.335Z,16.78
2018-09-13T05:51:24.322Z,16.88
2018-09-13T05:52:24.312Z,16.98
2018-09-13T05:53:24.356Z,17.06
2018-09-13T05:54:24.605Z,17.09
2018-09-13T05:55:24.281Z,17.09
2018-09-13T05:56:24.268Z,17.21
2018-09-13T05:57:24.257Z,17.22
2018-09-13T05:58:24.248Z,17.38
2018-09-13T05:59:24.439Z,17.43
2018-09-13T06:00:24.228Z,17.46
2018-09-13T06:01:24.278Z,17.53
2018-09-13T06:02:24.204Z,17.58
2018-09-13T06:03:24.195Z,17.74
2018-09-13T06:04:24.268Z,17.70
2018-09-13T06:05:24.177Z,17.77
2018-09-13T06:06:24.161Z,17.77
2018-09-13T06:07:24.171Z,17.70
2018-09-13T06:08:24.141Z,17.71
2018-09-13T06:09:24.414Z,17.89
2018-09-13T06:10:24.120Z,17.95
2018-09-13T06:11:24.114Z,18.04
2018-09-13T06:12:24.102Z,17.71
2018-09-13T06:13:24.092Z,17.80
2018-09-13T06:14:24.242Z,18.07
2018-09-13T06:15:24.066Z,18.19
2018-09-13T06:16:24.057Z,18.32
2018-09-13T06:17:24.044Z,18.28
2018-09-13T06:18:24.033Z,18.26
2018-09-13T06:19:24.069Z,18.21
2018-09-13T06:20:24.011Z,18.20
2018-09-13T06:21:24.008Z,18.10
2018-09-13T06:22:23.993Z,17.94
2018-09-13T06:23:23.978Z,18.21
2018-09-13T06:24:24.211Z,18.28
2018-09-13T06:25:23.960Z,18.47
2018-09-13T06:26:23.945Z,18.57
2018-09-13T06:27:23.941Z,18.74
2018-09-13T06:28:23.927Z,18.75
2018-09-13T06:29:24.062Z,18.75
2018-09-13T06:30:23.920Z,18.75
2018-09-13T06:31:23.892Z,18.72
2018-09-13T06:32:23.881Z,18.82
2018-09-13T06:33:23.870Z,18.91
2018-09-13T06:34:24.178Z,18.93
2018-09-13T06:35:24.120Z,19.16
2018-09-13T06:36:23.845Z,19.20
2018-09-13T06:37:23.827Z,19.23
2018-09-13T06:38:23.826Z,19.31
2018-09-13T06:39:24.010Z,19.31
2018-09-13T06:40:23.801Z,19.42
2018-09-13T06:41:23.788Z,19.38
2018-09-13T06:42:23.821Z,19.46
2018-09-13T06:43:23.765Z,19.46
2018-09-13T06:44:23.840Z,19.57
2018-09-13T06:45:23.779Z,19.49
2018-09-13T06:46:23.737Z,19.68
2018-09-13T06:47:23.724Z,19.85
2018-09-13T06:48:23.723Z,19.46
2018-09-13T06:49:23.986Z,19.38
2018-09-13T06:50:23.690Z,19.64
2018-09-13T06:51:23.680Z,19.49
2018-09-13T06:52:23.669Z,19.15
2018-09-13T06:53:23.666Z,19.16
2018-09-13T06:54:23.810Z,19.42
2018-09-13T06:55:23.635Z,19.71
2018-09-13T06:56:23.624Z,19.52
2018-09-13T06:57:23.614Z,19.78
2018-09-13T06:58:23.605Z,19.87
2018-09-13T06:59:23.641Z,19.94
2018-09-13T07:00:23.588Z,19.89
2018-09-13T07:01:23.570Z,19.52
2018-09-13T07:02:23.616Z,19.50
2018-09-13T07:03:23.548Z,19.70
2018-09-13T07:04:23.778Z,19.86
2018-09-13T07:05:23.526Z,19.67
2018-09-13T07:06:23.517Z,19.71
2018-09-13T07:07:23.506Z,19.92
2018-09-13T07:08:23.495Z,20.00
2018-09-13T07:09:23.614Z,20.02
2018-09-13T07:10:23.483Z,20.02
2018-09-13T07:11:23.465Z,19.97
2018-09-13T07:12:23.451Z,19.97
2018-09-13T07:13:23.444Z,20.04
2018-09-13T07:14:23.751Z,20.05
2018-09-13T07:15:23.422Z,19.95
2018-09-13T07:16:23.427Z,19.78
2018-09-13T07:17:23.408Z,19.50
2018-09-13T07:18:23.429Z,19.38
2018-09-13T07:19:23.580Z,18.97
2018-09-13T07:20:23.367Z,18.82
2018-09-13T07:21:23.360Z,18.69
2018-09-13T07:22:23.345Z,18.59
2018-09-13T07:23:23.333Z,18.76
2018-09-13T07:24:23.410Z,18.86
2018-09-13T07:25:23.312Z,19.01
2018-09-13T07:26:23.302Z,18.79
2018-09-13T07:27:23.294Z,18.84
2018-09-13T07:28:23.280Z,18.94
2018-09-13T07:29:23.551Z,19.01
2018-09-13T07:30:23.260Z,19.01
2018-09-13T07:31:23.245Z,18.91
2018-09-13T07:32:23.239Z,18.89
2018-09-13T07:33:23.227Z,18.82
2018-09-13T07:34:23.379Z,18.72
2018-09-13T07:35:23.202Z,18.84
2018-09-13T07:36:23.196Z,18.91
2018-09-13T07:37:23.183Z,19.12
2018-09-13T07:38:23.169Z,19.16
2018-09-13T07:39:23.519Z,19.16
2018-09-13T07:40:23.147Z,19.21
2018-09-13T07:41:23.136Z,19.31
2018-09-13T07:42:23.208Z,19.32
2018-09-13T07:43:23.115Z,19.30
2018-09-13T07:44:23.349Z,19.21
2018-09-13T07:45:23.097Z,19.13
2018-09-13T07:46:23.081Z,19.01
2018-09-13T07:47:23.070Z,19.09
2018-09-13T07:48:23.060Z,19.09
2018-09-13T07:49:23.264Z,19.12
2018-09-13T07:50:23.042Z,19.28
2018-09-13T07:51:23.032Z,19.25
2018-09-13T07:52:23.017Z,19.31
2018-09-13T07:53:23.006Z,19.42
2018-09-13T07:54:23.328Z,19.43
2018-09-13T07:55:22.995Z,19.02
2018-09-13T07:56:22.978Z,18.93
2018-09-13T07:57:22.967Z,18.66
2018-09-13T07:58:22.954Z,18.84
2018-09-13T07:59:22.945Z,19.02
2018-09-13T08:00:23.055Z,19.20
2018-09-13T08:01:22.919Z,19.27
2018-09-13T08:02:22.910Z,19.23
2018-09-13T08:03:22.896Z,18.99
2018-09-13T08:04:22.885Z,18.94
2018-09-13T08:05:23.193Z,19.13
2018-09-13T08:06:22.908Z,19.24
2018-09-13T08:07:22.858Z,19.25
2018-09-13T08:08:22.845Z,18.94
2018-09-13T08:09:22.829Z,18.99
2018-09-13T08:10:23.023Z,18.97
2018-09-13T08:11:22.809Z,18.78
2018-09-13T08:12:22.797Z,18.57
2018-09-13T08:13:22.791Z,18.60
2018-09-13T08:14:22.782Z,18.60
2018-09-13T08:15:22.898Z,18.32
2018-09-13T08:16:22.753Z,18.29
2018-09-13T08:17:22.759Z,18.60
2018-09-13T08:18:22.734Z,18.79
2018-09-13T08:19:22.722Z,18.68
2018-09-13T08:20:23.187Z,18.89
2018-09-13T08:21:22.702Z,19.12
2018-09-13T08:22:22.689Z,19.25
2018-09-13T08:23:22.680Z,19.31
2018-09-13T08:24:22.670Z,19.45
2018-09-13T08:25:22.826Z,19.13
2018-09-13T08:26:22.647Z,19.13
2018-09-13T08:27:22.668Z,19.32
2018-09-13T08:28:22.622Z,19.25
2018-09-13T08:29:22.613Z,19.13
2018-09-13T08:30:22.654Z,19.17
2018-09-13T08:31:22.589Z,19.31
2018-09-13T08:32:22.583Z,19.28
2018-09-13T08:33:22.600Z,19.16
2018-09-13T08:34:22.556Z,19.28
2018-09-13T08:35:22.795Z,19.32
2018-09-13T08:36:22.534Z,19.13
2018-09-13T08:37:22.523Z,19.12
2018-09-13T08:38:22.511Z,19.13
2018-09-13T08:39:22.503Z,19.05
2018-09-13T08:40:22.702Z,19.17
2018-09-13T08:41:22.480Z,18.91
2018-09-13T08:42:22.470Z,18.90
2018-09-13T08:43:22.460Z,19.01
2018-09-13T08:44:22.447Z,19.23
2018-09-13T08:45:22.768Z,19.21
2018-09-13T08:46:22.425Z,19.01
2018-09-13T08:47:22.414Z,19.28
2018-09-13T08:48:22.409Z,19.42
2018-09-13T08:49:22.399Z,19.20
2018-09-13T08:50:22.597Z,19.27
2018-09-13T08:51:22.573Z,19.39
2018-09-13T08:52:22.363Z,19.40
2018-09-13T08:53:22.352Z,19.67
2018-09-13T08:54:22.345Z,19.58
2018-09-13T08:55:22.429Z,19.55
2018-09-13T08:56:22.319Z,19.79
2018-09-13T08:57:22.306Z,19.90
2018-09-13T08:58:22.295Z,19.94
2018-09-13T08:59:22.287Z,19.83
2018-09-13T09:00:22.565Z,19.79
2018-09-13T09:01:22.265Z,19.79
2018-09-13T09:02:22.253Z,19.89
2018-09-13T09:03:22.241Z,19.76
2018-09-13T09:04:22.232Z,19.71
2018-09-13T09:05:22.448Z,19.70
2018-09-13T09:06:22.231Z,19.62
2018-09-13T09:07:22.199Z,19.79
2018-09-13T09:08:22.189Z,19.79
2018-09-13T09:09:22.178Z,19.83
2018-09-13T09:10:22.227Z,19.94
2018-09-13T09:11:22.155Z,19.89
2018-09-13T09:12:22.144Z,19.71
2018-09-13T09:13:22.138Z,19.76
2018-09-13T09:14:22.124Z,19.86
2018-09-13T09:15:22.364Z,19.76
2018-09-13T09:16:22.103Z,20.01
2018-09-13T09:17:22.091Z,20.12
2018-09-13T09:18:22.082Z,20.30
2018-09-13T09:19:22.082Z,20.35
2018-09-13T09:20:22.195Z,20.20
2018-09-13T09:21:22.049Z,20.27
2018-09-13T09:22:22.039Z,20.22
2018-09-13T09:23:22.029Z,20.10
2018-09-13T09:24:22.017Z,20.08
2018-09-13T09:25:23.257Z,20.19
2018-09-13T09:26:21.995Z,20.27
2018-09-13T09:27:21.983Z,20.51
2018-09-13T09:28:21.973Z,20.46
2018-09-13T09:29:22.050Z,20.44
2018-09-13T09:30:22.170Z,20.38
2018-09-13T09:31:21.945Z,20.44
2018-09-13T09:32:21.935Z,20.35
2018-09-13T09:33:21.921Z,20.35
2018-09-13T09:34:21.910Z,20.19
2018-09-13T09:35:21.996Z,20.26
2018-09-13T09:36:21.890Z,20.20
2018-09-13T09:37:21.923Z,20.31
2018-09-13T09:38:21.875Z,20.38
2018-09-13T09:39:21.857Z,20.31
2018-09-13T09:40:22.151Z,20.02
2018-09-13T09:41:21.835Z,20.05
2018-09-13T09:42:21.827Z,20.07
2018-09-13T09:43:21.818Z,20.15
2018-09-13T09:44:21.895Z,20.37
2018-09-13T09:45:21.967Z,20.16
2018-09-13T09:46:21.784Z,20.19
2018-09-13T09:47:21.771Z,20.38
2018-09-13T09:48:21.760Z,20.42
2018-09-13T09:49:21.755Z,20.15
2018-09-13T09:50:21.936Z,20.35
2018-09-13T09:51:21.728Z,20.69
2018-09-13T09:52:21.780Z,20.61
2018-09-13T09:53:21.707Z,20.85
2018-09-13T09:54:21.698Z,20.85
2018-09-13T09:55:22.246Z,20.75
2018-09-13T09:56:21.674Z,20.87
2018-09-13T09:57:21.666Z,20.96
2018-09-13T09:58:21.654Z,21.01
2018-09-13T09:59:21.643Z,21.11
2018-09-13T10:00:21.768Z,21.21
2018-09-13T10:01:21.621Z,21.28
2018-09-13T10:02:21.610Z,21.38
2018-09-13T10:03:21.599Z,21.48
2018-09-13T10:04:21.644Z,21.34
2018-09-13T10:05:21.912Z,21.31
2018-09-13T10:06:21.570Z,21.45
2018-09-13T10:07:21.556Z,21.46
2018-09-13T10:08:21.545Z,21.55
2018-09-13T10:09:21.536Z,21.71
2018-09-13T10:10:21.740Z,21.73
2018-09-13T10:11:21.517Z,21.56
2018-09-13T10:12:21.505Z,21.55
2018-09-13T10:13:21.491Z,21.66
2018-09-13T10:14:21.482Z,21.51
2018-09-13T10:15:21.566Z,21.59
2018-09-13T10:16:21.502Z,21.74
2018-09-13T10:17:21.452Z,21.70
2018-09-13T10:18:21.438Z,21.75
2018-09-13T10:19:21.428Z,21.59
2018-09-13T10:20:21.706Z,21.61
2018-09-13T10:21:21.408Z,21.64
2018-09-13T10:22:21.398Z,21.48
2018-09-13T10:23:21.398Z,21.49
2018-09-13T10:24:21.375Z,21.33
2018-09-13T10:25:21.538Z,21.21
2018-09-13T10:26:21.353Z,21.33
2018-09-13T10:27:21.642Z,21.26
2018-09-13T10:28:21.332Z,21.43
2018-09-13T10:29:21.445Z,21.19
2018-09-13T10:30:21.310Z,21.34
2018-09-13T10:31:21.581Z,21.34
2018-09-13T10:32:21.290Z,21.53
2018-09-13T10:33:21.279Z,21.59
2018-09-13T10:34:21.268Z,21.91
2018-09-13T10:35:21.267Z,21.74
2018-09-13T10:36:21.410Z,21.56
2018-09-13T10:37:21.238Z,21.86
2018-09-13T10:38:21.226Z,21.94
2018-09-13T10:39:21.216Z,21.93
2018-09-13T10:40:21.207Z,22.02
2018-09-13T10:41:21.574Z,22.41
2018-09-13T10:42:21.184Z,22.67
2018-09-13T10:43:21.173Z,22.72
2018-09-13T10:44:21.163Z,22.70
2018-09-13T10:45:21.152Z,22.93
2018-09-13T10:46:21.386Z,23.34
2018-09-13T10:47:21.182Z,23.11
2018-09-13T10:48:21.120Z,22.76
2018-09-13T10:49:21.110Z,22.72
2018-09-13T10:50:21.147Z,22.94
2018-09-13T10:51:21.212Z,22.69
2018-09-13T10:52:21.195Z,22.23
2018-09-13T10:53:21.066Z,22.14
2018-09-13T10:54:21.104Z,22.05
2018-09-13T10:55:21.182Z,22.29
2018-09-13T10:56:21.350Z,22.35
2018-09-13T10:57:21.026Z,22.45
2018-09-13T10:58:21.013Z,22.38
2018-09-13T10:59:21.006Z,22.33
2018-09-13T11:00:20.995Z,22.09
2018-09-13T11:01:21.181Z,21.90
2018-09-13T11:02:20.971Z,22.02
2018-09-13T11:03:20.964Z,21.82
2018-09-13T11:04:20.965Z,21.90
2018-09-13T11:05:20.944Z,21.89
2018-09-13T11:06:21.320Z,21.91
2018-09-13T11:07:20.918Z,22.23
2018-09-13T11:08:20.909Z,22.27
2018-09-13T11:09:20.896Z,22.33
2018-09-13T11:10:20.934Z,22.21
2018-09-13T11:11:20.947Z,22.26
2018-09-13T11:12:21.058Z,22.31
2018-09-13T11:13:20.855Z,22.49
2018-09-13T11:14:20.845Z,22.24
2018-09-13T11:15:20.840Z,22.24
2018-09-13T11:16:20.822Z,22.06
2018-09-13T11:17:20.887Z,22.15
2018-09-13T11:18:20.822Z,22.15
2018-09-13T11:19:20.791Z,22.19
2018-09-13T11:20:20.783Z,22.45
2018-09-13T11:21:20.774Z,22.49
2018-09-13T11:22:21.024Z,22.72
2018-09-13T11:23:20.750Z,23.00
2018-09-13T11:24:20.742Z,23.31
2018-09-13T11:25:20.731Z,23.26
2018-09-13T11:26:20.718Z,23.45
2018-09-13T11:27:20.863Z,23.26
2018-09-13T11:28:20.700Z,23.49
2018-09-13T11:29:20.686Z,23.44
2018-09-13T11:30:20.690Z,23.50
2018-09-13T11:31:20.666Z,23.54
2018-09-13T11:32:20.996Z,23.56
2018-09-13T11:33:20.646Z,23.60
2018-09-13T11:34:20.634Z,23.71
2018-09-13T11:35:20.623Z,23.71
2018-09-13T11:36:20.614Z,23.53
2018-09-13T11:37:20.604Z,23.54
2018-09-13T11:38:21.654Z,23.74
2018-09-13T11:39:20.588Z,24.23
2018-09-13T11:40:20.725Z,23.92
2018-09-13T11:41:20.562Z,23.99
2018-09-13T11:42:20.554Z,23.86
2018-09-13T11:43:20.869Z,23.89
2018-09-13T11:44:20.531Z,23.77
2018-09-13T11:45:20.521Z,24.06
2018-09-13T11:46:20.810Z,24.05
2018-09-13T11:47:20.499Z,24.21
2018-09-13T11:48:20.701Z,24.34
2018-09-13T11:49:20.479Z,24.23
2018-09-13T11:50:20.467Z,23.93
2018-09-13T11:51:20.456Z,23.94
2018-09-13T11:52:20.445Z,24.05
2018-09-13T11:53:20.837Z,24.23
2018-09-13T11:54:20.427Z,24.19
2018-09-13T11:55:20.413Z,24.15
2018-09-13T11:56:20.401Z,23.96
2018-09-13T11:57:20.392Z,23.86
2018-09-13T11:58:20.667Z,23.71
2018-09-13T11:59:20.368Z,23.47
2018-09-13T12:00:20.386Z,23.34
2018-09-13T12:01:20.378Z,23.37
2018-09-13T12:02:20.337Z,23.53
2018-09-13T12:03:20.500Z,23.74
2018-09-13T12:04:20.315Z,23.93
2018-09-13T12:05:20.305Z,23.79
2018-09-13T12:06:20.298Z,23.75
2018-09-13T12:07:20.283Z,23.68
2018-09-13T12:08:20.334Z,23.64
2018-09-13T12:09:20.304Z,23.78
2018-09-13T12:10:20.253Z,24.06
2018-09-13T12:11:20.242Z,24.29
2018-09-13T12:12:20.256Z,24.33
2018-09-13T12:13:20.475Z,24.66
2018-09-13T12:14:20.208Z,24.29
2018-09-13T12:15:20.198Z,24.18
2018-09-13T12:16:20.187Z,23.99
2018-09-13T12:17:20.176Z,24.16
2018-09-13T12:18:21.462Z,24.12
2018-09-13T12:19:20.220Z,24.31
2018-09-13T12:20:21.029Z,24.42
2018-09-13T12:21:20.135Z,24.90
2018-09-13T12:22:20.135Z,25.08
2018-09-13T12:23:20.439Z,25.39
2018-09-13T12:24:20.102Z,25.48
2018-09-13T12:25:20.092Z,25.64
2018-09-13T12:26:20.083Z,25.14
2018-09-13T12:27:20.130Z,25.08
2018-09-13T12:28:20.059Z,24.98
2018-09-13T12:29:20.184Z,24.99
2018-09-13T12:30:20.043Z,24.98
2018-09-13T12:31:20.027Z,25.07
2018-09-13T12:32:20.016Z,25.42
2018-09-13T12:33:20.005Z,25.38
2018-09-13T12:34:20.316Z,25.64
2018-09-13T12:35:20.946Z,25.59
2018-09-13T12:36:20.065Z,25.63
2018-09-13T12:37:19.962Z,25.24
2018-09-13T12:38:19.949Z,25.22
2018-09-13T12:39:20.145Z,24.87
2018-09-13T12:40:19.934Z,25.09
2018-09-13T12:41:19.919Z,25.39
2018-09-13T12:42:19.905Z,25.23
2018-09-13T12:43:19.896Z,25.05
2018-09-13T12:44:19.974Z,25.08
2018-09-13T12:45:19.908Z,25.17
2018-09-13T12:46:20.882Z,25.56
2018-09-13T12:47:19.851Z,25.38
2018-09-13T12:48:20.709Z,25.59
2018-09-13T12:49:20.113Z,25.60
2018-09-13T12:50:19.817Z,25.30
2018-09-13T12:51:19.809Z,25.26
2018-09-13T12:52:19.858Z,25.19